createdAt,value
2023-05-03T00:00:27.598Z,5.9
2023-05-03T00:02:35.409Z,5.8
2023-05-03T00:04:46.236Z,5.8
2023-05-03T00:06:54.228Z,5.8
2023-05-03T00:09:02.428Z,5.8
2023-05-03T00:11:10.880Z,5.7
2023-05-03T00:13:18.726Z,5.7
2023-05-03T00:15:26.810Z,5.7
2023-05-03T00:17:34.652Z,5.6
2023-05-03T00:19:46.575Z,5.6
2023-05-03T00:21:54.406Z,5.6
2023-05-03T00:24:02.123Z,5.6
2023-05-03T00:26:09.833Z,5.5
2023-05-03T00:28:17.587Z,5.6
2023-05-03T00:30:26.073Z,5.6
2023-05-03T00:32:34.394Z,5.5
2023-05-03T00:34:42.504Z,5.5
2023-05-03T00:36:51.793Z,5.5
2023-05-03T00:38:59.474Z,5.4
2023-05-03T00:41:07.745Z,5.4
2023-05-03T00:43:15.604Z,5.4
2023-05-03T00:45:23.798Z,5.4
2023-05-03T00:47:31.782Z,5.4
2023-05-03T00:49:39.946Z,5.4
2023-05-03T00:51:47.972Z,5.3
2023-05-03T00:53:57.676Z,5.3
2023-05-03T00:56:05.817Z,5.3
2023-05-03T00:58:13.482Z,5.3
2023-05-03T01:00:22.307Z,5.3
2023-05-03T01:02:30.172Z,5.3
2023-05-03T01:04:38.288Z,5.3
2023-05-03T01:06:53.424Z,5.2
2023-05-03T01:09:07.989Z,5.2
2023-05-03T01:11:22.694Z,5.2
2023-05-03T01:13:45.155Z,5.2
2023-05-03T01:16:00.481Z,5.2
2023-05-03T01:18:17.452Z,5.2
2023-05-03T01:20:30.691Z,5.2
2023-05-03T01:22:47.069Z,5.2
2023-05-03T01:25:02.340Z,5.2
2023-05-03T01:27:11.645Z,5.2
2023-05-03T01:29:19.396Z,5.2
2023-05-03T01:31:30.967Z,5.1
2023-05-03T01:33:53.997Z,5.1
2023-05-03T01:36:06.079Z,5.1
2023-05-03T01:38:14.809Z,5.1
2023-05-03T01:40:25.159Z,5.1
2023-05-03T01:42:34.800Z,5.1
2023-05-03T01:44:43.944Z,5.1
2023-05-03T01:46:51.691Z,5.1
2023-05-03T01:48:59.450Z,5.1
2023-05-03T01:51:07.181Z,5
2023-05-03T01:53:15.155Z,5
2023-05-03T01:55:24.309Z,5
2023-05-03T01:57:32.046Z,5
2023-05-03T01:59:39.716Z,5
2023-05-03T02:01:47.446Z,5
2023-05-03T02:03:55.305Z,5
2023-05-03T02:06:03.063Z,4.9
2023-05-03T02:08:10.879Z,4.9
2023-05-03T02:10:18.732Z,4.9
2023-05-03T02:12:27.753Z,4.9
2023-05-03T02:14:35.493Z,4.9
2023-05-03T02:16:43.267Z,4.8
2023-05-03T02:18:51.730Z,4.8
2023-05-03T02:20:59.401Z,4.8
2023-05-03T02:23:07.121Z,4.8
2023-05-03T02:25:14.840Z,4.8
2023-05-03T02:27:22.631Z,4.9
2023-05-03T02:29:32.124Z,4.9
2023-05-03T02:31:39.847Z,4.8
2023-05-03T02:33:47.586Z,4.9
2023-05-03T02:35:55.385Z,4.8
2023-05-03T02:38:03.135Z,4.9
2023-05-03T02:40:11.823Z,4.8
2023-05-03T02:42:19.601Z,4.8
2023-05-03T02:44:27.415Z,4.8
2023-05-03T02:46:36.583Z,4.8
2023-05-03T02:48:44.391Z,4.8
2023-05-03T02:50:54.715Z,4.8
2023-05-03T02:53:04.141Z,4.8
2023-05-03T02:55:12.059Z,4.7
2023-05-03T02:57:19.817Z,4.8
2023-05-03T02:59:27.803Z,4.7
2023-05-03T03:01:36.885Z,4.7
2023-05-03T03:03:45.165Z,4.7
2023-05-03T03:05:52.899Z,4.7
2023-05-03T03:08:00.717Z,4.6
2023-05-03T03:10:10.014Z,4.6
2023-05-03T03:12:18.034Z,4.6
2023-05-03T03:14:25.961Z,4.5
2023-05-03T03:16:33.851Z,4.5
2023-05-03T03:18:42.972Z,4.5
2023-05-03T03:20:50.738Z,4.5
2023-05-03T03:22:58.398Z,4.5
2023-05-03T03:25:07.456Z,4.4
2023-05-03T03:27:15.307Z,4.4
2023-05-03T03:29:23.003Z,4.4
2023-05-03T03:31:31.127Z,4.4
2023-05-03T03:33:38.873Z,4.4
2023-05-03T03:35:48.482Z,4.4
2023-05-03T03:37:56.171Z,4.4
2023-05-03T03:40:05.186Z,4.4
2023-05-03T03:42:14.048Z,4.4
2023-05-03T03:44:21.883Z,4.3
2023-05-03T03:46:29.689Z,4.3
2023-05-03T03:48:37.517Z,4.3
2023-05-03T03:50:45.330Z,4.3
2023-05-03T03:52:54.804Z,4.3
2023-05-03T03:55:02.616Z,4.3
2023-05-03T03:57:10.367Z,4.3
2023-05-03T03:59:18.227Z,4.3
2023-05-03T04:01:26.779Z,4.3
2023-05-03T04:03:34.690Z,4.3
2023-05-03T04:05:42.542Z,4.3
2023-05-03T04:07:50.265Z,4.2
2023-05-03T04:09:59.374Z,4.2
2023-05-03T04:12:07.871Z,4.2
2023-05-03T04:14:15.558Z,4.2
2023-05-03T04:16:23.239Z,4.2
2023-05-03T04:18:30.952Z,4.2
2023-05-03T04:20:38.849Z,4.2
2023-05-03T04:22:46.707Z,4.2
2023-05-03T04:24:54.894Z,4.2
2023-05-03T04:27:04.418Z,4.2
2023-05-03T04:29:12.546Z,4.2
2023-05-03T04:31:21.851Z,4.3
2023-05-03T04:33:29.874Z,4.3
2023-05-03T04:35:37.755Z,4.3
2023-05-03T04:37:45.917Z,4.3
2023-05-03T04:39:54.086Z,4.5
2023-05-03T04:42:02.777Z,4.7
2023-05-03T04:44:11.774Z,5.1
2023-05-03T04:46:19.648Z,5.6
2023-05-03T04:48:27.590Z,6
2023-05-03T04:50:35.380Z,6.5
2023-05-03T04:52:43.213Z,6.9
2023-05-03T04:54:51.601Z,7.3
2023-05-03T04:56:59.516Z,7.5
2023-05-03T04:59:07.379Z,7.6
2023-05-03T05:01:16.576Z,7.7
2023-05-03T05:03:24.621Z,7.6
2023-05-03T05:05:32.692Z,7.6
2023-05-03T05:07:40.812Z,7.5
2023-05-03T05:09:48.494Z,7.4
2023-05-03T05:11:57.137Z,7.4
2023-05-03T05:14:05.349Z,7.3
2023-05-03T05:16:13.252Z,7.2
2023-05-03T05:18:22.562Z,7
2023-05-03T05:20:30.531Z,7
2023-05-03T05:22:38.389Z,7
2023-05-03T05:24:46.066Z,6.9
2023-05-03T05:26:53.980Z,6.9
2023-05-03T05:29:02.110Z,6.9
2023-05-03T05:31:09.894Z,6.9
2023-05-03T05:33:19.042Z,6.9
2023-05-03T05:35:31.074Z,7
2023-05-03T05:37:38.859Z,7
2023-05-03T05:39:53.908Z,7.1
2023-05-03T05:42:01.839Z,7.1
2023-05-03T05:44:09.513Z,7.2
2023-05-03T05:46:17.683Z,7.3
2023-05-03T05:48:26.133Z,7.5
2023-05-03T05:50:36.429Z,7.5
2023-05-03T05:52:44.188Z,7.6
2023-05-03T05:54:52.238Z,7.8
2023-05-03T05:57:00.103Z,7.9
2023-05-03T05:59:07.891Z,8
2023-05-03T06:01:15.769Z,8.1
2023-05-03T06:03:23.486Z,8.2
2023-05-03T06:05:31.274Z,8.3
2023-05-03T06:07:41.219Z,8.4
2023-05-03T06:09:50.358Z,8.4
2023-05-03T06:11:58.051Z,8.5
2023-05-03T06:14:09.318Z,8.6
2023-05-03T06:16:17.222Z,8.7
2023-05-03T06:18:24.954Z,8.8
2023-05-03T06:20:32.772Z,8.9
2023-05-03T06:22:41.903Z,9
2023-05-03T06:24:49.665Z,9.2
2023-05-03T06:26:58.667Z,9.3
2023-05-03T06:29:06.428Z,9.4
2023-05-03T06:31:14.262Z,9.5
2023-05-03T06:33:21.991Z,9.6
2023-05-03T06:35:29.704Z,9.7
2023-05-03T06:37:37.511Z,9.8
2023-05-03T06:39:46.568Z,9.9
2023-05-03T06:41:54.305Z,10
2023-05-03T06:44:02.315Z,10.2
2023-05-03T06:46:11.130Z,10.3
2023-05-03T06:48:19.205Z,10.4
2023-05-03T06:50:27.081Z,10.5
2023-05-03T06:52:34.920Z,10.6
2023-05-03T06:54:42.636Z,10.8
2023-05-03T06:56:51.895Z,11
2023-05-03T06:58:59.627Z,11.1
2023-05-03T07:01:07.448Z,11.2
2023-05-03T07:03:15.388Z,11.2
2023-05-03T07:05:23.402Z,11.1
2023-05-03T07:07:31.187Z,11.2
2023-05-03T07:09:43.020Z,11.2
2023-05-03T07:11:53.973Z,11.4
2023-05-03T07:14:01.799Z,11.6
2023-05-03T07:16:09.904Z,11.7
2023-05-03T07:18:17.640Z,11.8
2023-05-03T07:20:26.204Z,12
2023-05-03T07:22:34.057Z,12.1
2023-05-03T07:24:42.052Z,12.3
2023-05-03T07:26:49.882Z,12.4
2023-05-03T07:28:59.293Z,12.3
2023-05-03T07:31:07.399Z,12.2
2023-05-03T07:33:15.518Z,12.3
2023-05-03T07:35:23.763Z,12.5
2023-05-03T07:37:31.566Z,12.6
2023-05-03T07:39:40.698Z,13
2023-05-03T07:41:49.488Z,13.2
2023-05-03T07:43:58.550Z,13.4
2023-05-03T07:46:06.453Z,13.3
2023-05-03T07:48:14.372Z,13.1
2023-05-03T07:50:22.222Z,12.9
2023-05-03T07:52:30.119Z,12.7
2023-05-03T07:54:37.836Z,12.6
2023-05-03T07:56:48.625Z,12.6
2023-05-03T07:59:05.061Z,12.5
2023-05-03T08:01:17.905Z,12.4
2023-05-03T08:03:25.779Z,12.2
2023-05-03T08:05:36.079Z,12.1
2023-05-03T08:07:44.302Z,12.3
2023-05-03T08:09:53.528Z,12.7
2023-05-03T08:12:03.077Z,13.1
2023-05-03T08:14:11.314Z,13.3
2023-05-03T08:16:20.461Z,13.2
2023-05-03T08:18:28.392Z,13
2023-05-03T08:20:37.769Z,12.8
2023-05-03T08:22:46.341Z,12.7
2023-05-03T08:24:56.498Z,12.7
2023-05-03T08:27:05.734Z,12.8
2023-05-03T08:29:14.328Z,13
2023-05-03T08:31:23.506Z,13.3
2023-05-03T08:33:31.393Z,13.7
2023-05-03T08:35:39.418Z,13.8
2023-05-03T08:37:47.490Z,13.7
2023-05-03T08:39:55.541Z,13.6
2023-05-03T08:42:07.996Z,13.6
2023-05-03T08:44:22.535Z,13.2
2023-05-03T08:46:32.062Z,13.1
2023-05-03T08:48:39.992Z,13.2
2023-05-03T08:50:49.287Z,13
2023-05-03T08:52:57.713Z,13
2023-05-03T08:55:07.494Z,13.2
2023-05-03T08:57:16.883Z,13.3
2023-05-03T08:59:26.545Z,13.3
2023-05-03T09:01:37.531Z,13.2
2023-05-03T09:03:50.738Z,13.2
2023-05-03T09:06:01.875Z,13
2023-05-03T09:08:11.336Z,12.9
2023-05-03T09:10:23.978Z,12.9
2023-05-03T09:12:36.912Z,12.9
2023-05-03T09:14:45.693Z,12.9
2023-05-03T09:16:54.878Z,12.8
2023-05-03T09:19:04.466Z,12.7
2023-05-03T09:21:20.358Z,12.7
2023-05-03T09:23:32.398Z,12.7
2023-05-03T09:25:45.463Z,12.9
2023-05-03T09:28:02.882Z,13
2023-05-03T09:30:20.398Z,13.2
2023-05-03T09:32:29.690Z,13.3
2023-05-03T09:34:38.098Z,13.4
2023-05-03T09:36:47.961Z,13.5
2023-05-03T09:38:56.275Z,13.5
2023-05-03T09:41:05.957Z,13.5
2023-05-03T09:43:17.526Z,13.6
2023-05-03T09:45:29.367Z,13.6
2023-05-03T09:47:51.707Z,13.6
2023-05-03T09:49:59.737Z,13.4
2023-05-03T09:52:08.870Z,13.4
2023-05-03T09:54:16.861Z,13.6
2023-05-03T09:56:26.586Z,13.9
2023-05-03T09:58:36.153Z,14.1
2023-05-03T10:00:46.477Z,14.1
2023-05-03T10:02:57.932Z,14.1
2023-05-03T10:05:07.878Z,14
2023-05-03T10:07:19.188Z,13.8
2023-05-03T10:09:33.717Z,13.7
2023-05-03T10:11:49.819Z,13.6
2023-05-03T10:13:57.778Z,13.5
2023-05-03T10:16:09.783Z,13.5
2023-05-03T10:18:21.268Z,13.4
2023-05-03T10:20:36.561Z,13.4
2023-05-03T10:23:08.700Z,13.3
2023-05-03T10:25:16.943Z,13.3
2023-05-03T10:27:24.657Z,13.2
2023-05-03T10:29:49.588Z,13.3
2023-05-03T10:31:57.729Z,13.3
2023-05-03T10:34:21.066Z,13.2
2023-05-03T10:36:35.430Z,13.2
2023-05-03T10:38:54.331Z,13.2
2023-05-03T10:41:03.839Z,13.2
2023-05-03T10:43:42.614Z,13.1
2023-05-03T10:45:52.452Z,13
2023-05-03T10:48:22.580Z,12.9
2023-05-03T10:50:31.769Z,12.8
2023-05-03T10:52:51.821Z,12.9
2023-05-03T10:54:59.943Z,12.9
2023-05-03T10:57:08.382Z,13
2023-05-03T10:59:16.272Z,13.1
2023-05-03T11:01:25.791Z,13.2
2023-05-03T11:03:52.484Z,13.2
2023-05-03T11:06:02.976Z,13.2
2023-05-03T11:08:13.132Z,13.2
2023-05-03T11:10:21.491Z,13.3
2023-05-03T11:12:29.266Z,13.3
2023-05-03T11:14:37.298Z,13.5
2023-05-03T11:16:50.659Z,13.7
2023-05-03T11:18:58.605Z,13.7
2023-05-03T11:21:07.925Z,13.8
2023-05-03T11:23:16.114Z,13.9
2023-05-03T11:25:24.106Z,13.9
2023-05-03T11:27:33.940Z,13.9
2023-05-03T11:29:42.139Z,13.9
2023-05-03T11:31:50.056Z,13.8
2023-05-03T11:33:58.415Z,13.7
2023-05-03T11:36:09.457Z,13.8
2023-05-03T11:38:17.729Z,13.9
2023-05-03T11:40:26.083Z,13.9
2023-05-03T11:42:33.873Z,13.9
2023-05-03T11:44:41.584Z,14
2023-05-03T11:46:49.649Z,14
2023-05-03T11:48:57.705Z,14
2023-05-03T11:51:11.425Z,14
2023-05-03T11:53:22.788Z,13.9
2023-05-03T11:55:32.158Z,13.9
2023-05-03T11:57:39.905Z,13.8
2023-05-03T11:59:49.531Z,13.8
2023-05-03T12:01:57.874Z,14
2023-05-03T12:04:09.886Z,14.5
2023-05-03T12:06:20.804Z,14.8
2023-05-03T12:08:31.378Z,14.8
2023-05-03T12:10:40.648Z,14.6
2023-05-03T12:12:57.671Z,14.6
2023-05-03T12:15:07.864Z,14.6
2023-05-03T12:17:36.617Z,14.5
2023-05-03T12:19:48.696Z,14.6
2023-05-03T12:24:17.723Z,14.8
2023-05-03T12:26:28.766Z,14.9
2023-05-03T12:28:36.755Z,14.9
2023-05-03T12:30:46.186Z,14.9
2023-05-03T12:32:58.480Z,14.9
2023-05-03T12:35:11.456Z,14.9
2023-05-03T12:37:27.083Z,15
2023-05-03T12:39:39.461Z,15.2
2023-05-03T12:44:02.154Z,15.1
2023-05-03T12:48:26.930Z,15
2023-05-03T12:50:38.479Z,15
2023-05-03T12:52:52.485Z,14.9
2023-05-03T12:55:03.583Z,14.9
2023-05-03T13:02:05.809Z,14.8
2023-05-03T13:06:14.962Z,14.7
2023-05-03T13:10:37.516Z,14.6
2023-05-03T13:12:45.550Z,14.6
2023-05-03T13:14:54.917Z,14.7
2023-05-03T13:17:03.228Z,14.6
2023-05-03T13:19:11.525Z,14.5
2023-05-03T13:21:19.250Z,14.4
2023-05-03T13:23:28.520Z,14.4
2023-05-03T13:25:38.051Z,14.4
2023-05-03T13:27:46.890Z,14.5
2023-05-03T13:29:54.876Z,14.6
2023-05-03T13:32:02.914Z,14.7
2023-05-03T13:34:10.775Z,14.8
2023-05-03T13:36:18.493Z,14.8
2023-05-03T13:38:28.141Z,14.9
2023-05-03T13:40:35.823Z,14.9
2023-05-03T13:42:43.589Z,15.1
2023-05-03T13:44:51.310Z,15.2
2023-05-03T13:47:02.503Z,15.3
2023-05-03T13:49:10.747Z,15.5
2023-05-03T13:51:18.772Z,15.5
2023-05-03T13:53:28.453Z,15.4
2023-05-03T13:55:36.203Z,15.4
2023-05-03T13:57:44.395Z,15.4
2023-05-03T13:59:53.321Z,15.4
2023-05-03T14:02:01.967Z,15.7
2023-05-03T14:04:10.170Z,16.1
2023-05-03T14:06:26.791Z,16.5
2023-05-03T14:08:35.845Z,16.7
2023-05-03T14:10:44.428Z,16.6
2023-05-03T14:12:52.755Z,16.3
2023-05-03T14:15:03.693Z,16.1
2023-05-03T14:17:11.758Z,16
2023-05-03T14:19:19.554Z,15.9
2023-05-03T14:21:27.355Z,15.9
2023-05-03T14:23:36.588Z,15.7
2023-05-03T14:25:47.447Z,15.7
2023-05-03T14:27:55.273Z,15.9
2023-05-03T14:30:03.569Z,16.2
2023-05-03T14:32:11.531Z,16.6
2023-05-03T14:34:19.557Z,16.7
2023-05-03T14:36:33.103Z,16.9
2023-05-03T14:38:42.443Z,16.9
2023-05-03T14:40:50.310Z,16.9
2023-05-03T14:42:58.003Z,16.8
2023-05-03T14:45:09.335Z,16.7
2023-05-03T14:47:19.555Z,16.7
2023-05-03T14:49:27.273Z,16.8
2023-05-03T14:51:35.152Z,16.9
2023-05-03T14:53:44.203Z,17.1
2023-05-03T14:55:53.691Z,17
2023-05-03T14:58:01.641Z,17
2023-05-03T15:02:22.481Z,17.1
2023-05-03T15:04:30.723Z,16.7
2023-05-03T15:06:39.435Z,16.6
2023-05-03T15:08:48.756Z,16.6
2023-05-03T15:10:56.548Z,16.7
2023-05-03T15:13:04.286Z,16.8
2023-05-03T15:15:12.437Z,17
2023-05-03T15:17:20.191Z,17.4
2023-05-03T15:19:28.054Z,17.5
2023-05-03T15:21:46.255Z,17.4
2023-05-03T15:23:55.771Z,17.5
2023-05-03T15:26:03.569Z,17.4
2023-05-03T15:28:11.421Z,17.4
2023-05-03T15:30:20.083Z,17.3
2023-05-03T15:32:28.252Z,17.2
2023-05-03T15:34:37.336Z,16.9
2023-05-03T15:36:45.137Z,16.4
2023-05-03T15:38:52.920Z,16.3
2023-05-03T15:41:02.137Z,16.3
2023-05-03T15:43:09.902Z,16.2
2023-05-03T15:45:18.654Z,16.1
2023-05-03T15:47:26.719Z,16
2023-05-03T15:49:34.485Z,15.9
2023-05-03T15:51:42.739Z,15.7
2023-05-03T15:53:50.620Z,15.7
2023-05-03T15:55:58.666Z,15.7
2023-05-03T15:58:09.110Z,15.8
2023-05-03T16:00:20.216Z,15.6
2023-05-03T16:02:28.054Z,15.5
2023-05-03T16:04:37.173Z,15.4
2023-05-03T16:06:45.010Z,15.3
2023-05-03T16:08:52.971Z,15.3
2023-05-03T16:11:01.370Z,15.5
2023-05-03T16:13:11.458Z,15.5
2023-05-03T16:15:19.369Z,15.6
2023-05-03T16:17:27.877Z,15.7
2023-05-03T16:19:37.369Z,15.9
2023-05-03T16:21:45.554Z,15.7
2023-05-03T16:23:54.460Z,15.8
2023-05-03T16:26:12.147Z,15.9
2023-05-03T16:28:21.495Z,16.1
2023-05-03T16:30:29.605Z,16.3
2023-05-03T16:32:38.116Z,16.1
2023-05-03T16:34:46.725Z,15.8
2023-05-03T16:36:54.469Z,15.5
2023-05-03T16:39:02.296Z,15.3
2023-05-03T16:41:10.127Z,15.2
2023-05-03T16:43:18.323Z,15.2
2023-05-03T16:45:27.519Z,15.1
2023-05-03T16:47:36.045Z,15.2
2023-05-03T16:49:43.917Z,15.2
2023-05-03T16:51:51.740Z,15.3
2023-05-03T16:54:01.121Z,15.3
2023-05-03T16:56:13.647Z,15.2
2023-05-03T16:58:21.518Z,15.1
2023-05-03T17:00:31.098Z,15
2023-05-03T17:02:39.635Z,15
2023-05-03T17:04:47.466Z,14.9
2023-05-03T17:06:56.034Z,14.6
2023-05-03T17:09:05.040Z,14.3
2023-05-03T17:11:14.681Z,14.2
2023-05-03T17:13:22.453Z,14.2
2023-05-03T17:15:32.700Z,14.1
2023-05-03T17:17:40.449Z,14
2023-05-03T17:19:48.808Z,13.9
2023-05-03T17:21:56.536Z,13.8
2023-05-03T17:24:04.328Z,13.4
2023-05-03T17:26:14.565Z,13.1
2023-05-03T17:28:22.591Z,12.9
2023-05-03T17:30:32.579Z,12.7
2023-05-03T17:32:40.942Z,12.6
2023-05-03T17:34:48.719Z,12.5
2023-05-03T17:36:57.574Z,12.4
2023-05-03T17:39:05.453Z,12.2
2023-05-03T17:41:13.124Z,12
2023-05-03T17:43:21.345Z,11.9
2023-05-03T17:45:29.254Z,11.8
2023-05-03T17:47:38.372Z,11.7
2023-05-03T17:49:46.562Z,11.6
2023-05-03T17:51:55.106Z,11.5
2023-05-03T17:54:03.197Z,11.4
2023-05-03T17:56:15.392Z,11.3
2023-05-03T17:58:23.376Z,11.2
2023-05-03T18:00:34.928Z,11.2
2023-05-03T18:02:44.588Z,11.1
2023-05-03T18:04:52.779Z,11.1
2023-05-03T18:07:00.522Z,11
2023-05-03T18:09:08.377Z,10.9
2023-05-03T18:11:16.230Z,10.9
2023-05-03T18:13:23.918Z,10.8
2023-05-03T18:15:32.104Z,10.8
2023-05-03T18:17:39.776Z,10.8
2023-05-03T18:19:48.996Z,10.7
2023-05-03T18:21:56.955Z,10.6
2023-05-03T18:24:05.116Z,10.6
2023-05-03T18:26:12.822Z,10.5
2023-05-03T18:28:22.655Z,10.4
2023-05-03T18:30:31.068Z,10.4
2023-05-03T18:32:38.892Z,10.4
2023-05-03T18:34:48.160Z,10.3
2023-05-03T18:36:55.977Z,10.3
2023-05-03T18:39:04.842Z,10.2
2023-05-03T18:41:14.057Z,10.2
2023-05-03T18:43:22.323Z,10.1
2023-05-03T18:45:30.313Z,10
2023-05-03T18:47:37.991Z,10
2023-05-03T18:49:52.292Z,10
2023-05-03T18:51:59.990Z,9.9
2023-05-03T18:54:07.735Z,9.9
2023-05-03T18:56:15.549Z,9.9
2023-05-03T18:58:23.372Z,9.8
2023-05-03T19:00:31.669Z,9.9
2023-05-03T19:02:39.420Z,9.9
2023-05-03T19:04:51.868Z,9.8
2023-05-03T19:06:59.772Z,9.8
2023-05-03T19:09:09.854Z,9.7
2023-05-03T19:11:17.952Z,9.7
2023-05-03T19:13:26.697Z,9.7
2023-05-03T19:15:34.577Z,9.7
2023-05-03T19:17:42.461Z,9.6
2023-05-03T19:19:51.669Z,9.6
2023-05-03T19:21:59.575Z,9.6
2023-05-03T19:24:11.365Z,9.5
2023-05-03T19:26:19.173Z,9.5
2023-05-03T19:28:27.250Z,9.4
2023-05-03T19:30:35.705Z,9.4
2023-05-03T19:32:44.233Z,9.3
2023-05-03T19:34:53.310Z,9.3
2023-05-03T19:37:01.060Z,9.3
2023-05-03T19:39:11.211Z,9.2
2023-05-03T19:41:19.051Z,9.2
2023-05-03T19:43:27.090Z,9.3
2023-05-03T19:45:35.163Z,9.1
2023-05-03T19:47:42.919Z,9.1
2023-05-03T19:49:51.029Z,9
2023-05-03T19:52:01.910Z,9
2023-05-03T19:54:09.596Z,9
2023-05-03T19:56:18.269Z,9
2023-05-03T19:58:27.072Z,8.9
2023-05-03T20:00:34.975Z,8.9
2023-05-03T20:02:42.802Z,8.9
2023-05-03T20:04:50.926Z,8.8
2023-05-03T20:06:59.984Z,8.7
2023-05-03T20:09:09.168Z,8.7
2023-05-03T20:11:17.372Z,8.7
2023-05-03T20:13:27.416Z,8.6
2023-05-03T20:15:37.313Z,8.5
2023-05-03T20:17:45.048Z,8.5
2023-05-03T20:19:52.801Z,8.5
2023-05-03T20:22:02.211Z,8.4
2023-05-03T20:24:11.063Z,8.4
2023-05-03T20:26:18.883Z,8.4
2023-05-03T20:28:27.429Z,8.3
2023-05-03T20:30:35.246Z,8.3
2023-05-03T20:32:43.073Z,8.3
2023-05-03T20:34:50.777Z,8.2
2023-05-03T20:36:58.487Z,8.2
2023-05-03T20:39:09.451Z,8.2
2023-05-03T20:41:18.211Z,8.1
2023-05-03T20:43:26.043Z,8.1
2023-05-03T20:45:34.510Z,8.1
2023-05-03T20:47:42.353Z,8
2023-05-03T20:49:50.139Z,8
2023-05-03T20:51:58.314Z,8
2023-05-03T20:54:07.362Z,7.9
2023-05-03T20:56:16.510Z,7.9
2023-05-03T20:58:24.213Z,7.9
2023-05-03T21:00:32.038Z,7.8
2023-05-03T21:02:40.606Z,7.8
2023-05-03T21:04:48.410Z,7.7
2023-05-03T21:06:56.485Z,7.5
2023-05-03T21:09:04.719Z,7.4
2023-05-03T21:11:14.131Z,7.4
2023-05-03T21:13:21.831Z,7.3
2023-05-03T21:15:29.757Z,7.3
2023-05-03T21:17:37.442Z,7.3
2023-05-03T21:19:45.712Z,7.3
2023-05-03T21:21:53.358Z,7.2
2023-05-03T21:24:01.063Z,7.2
2023-05-03T21:26:08.906Z,7.1
2023-05-03T21:28:18.030Z,7
2023-05-03T21:30:26.061Z,7
2023-05-03T21:32:34.691Z,7
2023-05-03T21:34:42.846Z,7
2023-05-03T21:36:50.595Z,6.9
2023-05-03T21:38:58.291Z,6.8
2023-05-03T21:41:06.579Z,6.8
2023-05-03T21:43:14.533Z,6.8
2023-05-03T21:45:24.062Z,6.7
2023-05-03T21:47:32.318Z,6.7
2023-05-03T21:49:40.043Z,6.6
2023-05-03T21:51:47.816Z,6.6
2023-05-03T21:53:55.790Z,6.6
2023-05-03T21:56:03.505Z,6.6
2023-05-03T21:58:11.170Z,6.4
2023-05-03T22:00:20.738Z,6.4
2023-05-03T22:02:30.061Z,6.3
2023-05-03T22:04:37.862Z,6.3
2023-05-03T22:06:46.115Z,6.3
2023-05-03T22:09:04.056Z,6.3
2023-05-03T22:11:28.489Z,6.3
2023-05-03T22:14:10.348Z,6.3
2023-05-03T22:16:06.511Z,6.3
2023-05-03T22:18:17.624Z,6.2
2023-05-03T22:20:37.445Z,6.2
2023-05-03T22:22:56.232Z,6.2
2023-05-03T22:25:04.161Z,6.2
2023-05-03T22:27:12.786Z,6.1
2023-05-03T22:29:20.584Z,6.1
2023-05-03T22:31:30.734Z,6
2023-05-03T22:34:22.043Z,6
2023-05-03T22:36:15.324Z,5.9
2023-05-03T22:38:23.313Z,5.9
2023-05-03T22:40:34.673Z,5.9
2023-05-03T22:42:42.418Z,5.8
2023-05-03T22:44:50.503Z,5.8
2023-05-03T22:46:58.794Z,5.8
2023-05-03T22:49:08.605Z,5.8
2023-05-03T22:51:16.730Z,5.7
2023-05-03T22:53:25.248Z,5.6
2023-05-03T22:55:33.346Z,5.6
2023-05-03T22:57:42.006Z,5.5
2023-05-03T22:59:50.316Z,5.5
2023-05-03T23:01:58.628Z,5.5
2023-05-03T23:04:11.643Z,5.5
2023-05-03T23:06:19.636Z,5.5
2023-05-03T23:08:27.555Z,5.5
2023-05-03T23:10:35.487Z,5.4
2023-05-03T23:12:43.655Z,5.4
2023-05-03T23:14:51.771Z,5.3
2023-05-03T23:16:59.996Z,5.2
2023-05-03T23:19:09.326Z,5.1
2023-05-03T23:21:17.308Z,5.1
2023-05-03T23:23:25.885Z,5.1
2023-05-03T23:25:34.118Z,5.1
2023-05-03T23:27:42.128Z,5.1
2023-05-03T23:29:51.907Z,5.1
2023-05-03T23:32:00.616Z,5.1
2023-05-03T23:34:10.362Z,5.1
2023-05-03T23:36:18.491Z,5
2023-05-03T23:38:26.466Z,5
2023-05-03T23:40:34.396Z,5
2023-05-03T23:42:43.312Z,5
2023-05-03T23:44:54.918Z,5
2023-05-03T23:47:03.944Z,5
2023-05-03T23:49:12.989Z,5
2023-05-03T23:51:20.950Z,5
2023-05-03T23:53:28.860Z,5
2023-05-03T23:55:37.297Z,4.9
2023-05-03T23:57:45.086Z,4.8
2023-05-03T23:59:52.926Z,4.9
